Youngtown, Arizona
Current Conditions -  °F | °C
As of 9:28 PM on Wednesday 26 Nov 2014 (Local Time) from KLUF Reporting Station
Haze Haze  
Wind Chill: 52°   Ceiling: Unl
Heat Index: 52°   Visibility: 5mi
Dew Point: 32°   Wind: 7mph
Humidity: 47%   Direction: 330°NNW
Pressure: 30.18"   Gusts: NA
Location:  33.59°N, 112.3°W
Report Text: KLUF 270428Z AUTO 33006KT 5SM HZ CLR 11/00 A3018 RMK AO2 $
Loading
Personal Weather Stations






























Interactive Weather Map New forecast layout! Learn more

10-Day Weather Forecast

Advertisements
Track Severe Weather on mobile